Main page
METAR-TAF:

METAR-TAF

Airports :

Cap Skirring Airport

Cap Skirring, Senegal

latitude: 12-24N, longitude: 016-45W, elevation: 16 m

Current weather observation

The report was made 3 hours and 7 minutes ago, at 12:00 UTC
Wind 6 kt from the North
Temperature 26°C
Humidity 65%
Pressure 1013 hPa
Visibility 10 km or more
no clouds below 1500 m and no cumulonimbus

METAR: GOGS 211200Z 36006KT CAVOK 26/19 Q1013

Time: 15:07 (15:07 UTC)

Forecast

The report was made 3 hours and 37 minutes ago, at 11:30 UTC
Forecast valid from 21 at 12 UTC to 22 at 12 UTC
Wind 8 kt from the Northwest
Visibility 10 km or more
no clouds below 1500 m and no cumulonimbus

TAF: GOGS 211130Z 2112/2212 32008KT CAVOK

Weather observations and forecasts of more than 4000 airports (METAR and TAF reports).

The available stations are represented by yellow and red dots on the map.

Hover mouse over dot to see the name of the station.

Then click to see weather observations and forecasts.

To change the map : click on the green buttons with a black cross to zoom in, on the green button with a dash to zoom out, or on the green arrows for adjacent maps.


METAR-TAF: